createdAt,value
2022-08-29T00:01:23.013Z,81.90
2022-08-29T00:03:49.978Z,81.90
2022-08-29T00:06:17.035Z,81.90
2022-08-29T00:08:43.967Z,81.80
2022-08-29T00:11:10.979Z,81.80
2022-08-29T00:13:37.871Z,81.70
2022-08-29T00:16:05.685Z,81.70
2022-08-29T00:18:33.323Z,81.80
2022-08-29T00:21:00.331Z,81.80
2022-08-29T00:23:27.557Z,82.40
2022-08-29T00:25:56.370Z,81.90
2022-08-29T00:28:24.628Z,81.90
2022-08-29T00:30:51.936Z,82.00
2022-08-29T00:33:19.474Z,82.00
2022-08-29T00:35:47.480Z,82.00
2022-08-29T00:38:18.302Z,82.10
2022-08-29T00:40:55.785Z,82.00
2022-08-29T00:43:31.085Z,81.30
2022-08-29T00:46:09.427Z,81.60
2022-08-29T00:48:39.644Z,81.70
2022-08-29T00:51:15.062Z,82.20
2022-08-29T00:53:50.025Z,82.20
2022-08-29T00:56:17.993Z,81.90
2022-08-29T00:58:53.843Z,82.20
2022-08-29T01:01:22.900Z,81.90
2022-08-29T01:03:51.505Z,82.30
2022-08-29T01:06:19.646Z,82.30
2022-08-29T01:08:47.717Z,82.30
2022-08-29T01:11:36.015Z,82.20
2022-08-29T01:14:05.009Z,82.00
2022-08-29T01:16:32.580Z,82.00
2022-08-29T01:19:11.834Z,81.90
2022-08-29T01:22:16.469Z,81.50
2022-08-29T01:24:50.736Z,81.20
2022-08-29T01:27:23.821Z,81.40
2022-08-29T01:29:51.057Z,81.60
2022-08-29T01:32:17.992Z,81.80
2022-08-29T01:34:45.615Z,81.90
2022-08-29T01:37:16.148Z,81.90
2022-08-29T01:39:45.743Z,81.90
2022-08-29T01:42:20.629Z,81.90
2022-08-29T01:44:55.309Z,81.80
2022-08-29T01:47:26.560Z,81.50
2022-08-29T01:49:54.408Z,82.00
2022-08-29T01:52:22.042Z,82.10
2022-08-29T01:54:49.464Z,82.10
2022-08-29T01:57:17.623Z,82.10
2022-08-29T01:59:45.259Z,82.10
2022-08-29T02:02:26.403Z,82.00
2022-08-29T02:04:55.325Z,81.10
2022-08-29T02:07:24.922Z,82.00
2022-08-29T02:09:52.349Z,82.00
2022-08-29T02:12:20.618Z,81.90
2022-08-29T02:14:48.350Z,81.90
2022-08-29T02:17:15.309Z,81.80
2022-08-29T02:19:43.497Z,81.80
2022-08-29T02:22:11.139Z,81.80
2022-08-29T02:24:38.256Z,81.80
2022-08-29T02:27:05.948Z,81.80
2022-08-29T02:29:37.978Z,81.70
2022-08-29T02:32:12.922Z,81.70
2022-08-29T02:34:44.687Z,81.20
2022-08-29T02:37:15.777Z,81.70
2022-08-29T02:39:42.632Z,81.70
2022-08-29T02:42:09.637Z,81.70
2022-08-29T02:44:36.522Z,81.70
2022-08-29T02:47:03.732Z,81.80
2022-08-29T02:49:30.692Z,81.80
2022-08-29T02:51:57.749Z,81.70
2022-08-29T02:54:24.630Z,81.60
2022-08-29T02:56:51.532Z,81.60
2022-08-29T02:59:18.684Z,81.60
2022-08-29T03:01:45.699Z,81.50
2022-08-29T03:04:12.637Z,81.40
2022-08-29T03:06:39.524Z,81.40
2022-08-29T03:09:06.459Z,81.40
2022-08-29T03:11:33.335Z,81.30
2022-08-29T03:14:00.964Z,81.40
2022-08-29T03:16:28.080Z,81.50
2022-08-29T03:18:55.466Z,81.50
2022-08-29T03:21:26.974Z,81.40
2022-08-29T03:23:59.047Z,81.20
2022-08-29T03:26:25.950Z,81.40
2022-08-29T03:28:52.993Z,81.40
2022-08-29T03:31:21.071Z,81.40
2022-08-29T03:33:48.578Z,81.40
2022-08-29T03:36:15.893Z,81.50
2022-08-29T03:38:44.146Z,81.50
2022-08-29T03:41:11.496Z,81.50
2022-08-29T03:43:41.220Z,81.50
2022-08-29T03:46:08.154Z,81.50
2022-08-29T03:48:35.044Z,81.60
2022-08-29T03:51:03.046Z,81.50
2022-08-29T03:53:32.568Z,81.50
2022-08-29T03:55:59.456Z,81.50
2022-08-29T03:58:26.390Z,81.50
2022-08-29T04:00:53.234Z,81.50
2022-08-29T04:03:24.954Z,81.50
2022-08-29T04:05:58.511Z,81.40
2022-08-29T04:08:25.442Z,81.40
2022-08-29T04:10:52.352Z,81.30
2022-08-29T04:13:19.252Z,81.20
2022-08-29T04:15:46.205Z,81.10
2022-08-29T04:18:13.126Z,81.10
2022-08-29T04:20:45.034Z,81.20
2022-08-29T04:23:14.812Z,81.10
2022-08-29T04:25:44.191Z,81.00
2022-08-29T04:28:14.751Z,81.00
2022-08-29T04:30:51.675Z,81.00
2022-08-29T04:33:22.513Z,80.60
2022-08-29T04:35:51.020Z,81.10
2022-08-29T04:38:18.937Z,81.10
2022-08-29T04:40:46.139Z,81.10
2022-08-29T04:43:13.231Z,81.10
2022-08-29T04:45:42.756Z,81.20
2022-08-29T04:48:10.702Z,81.10
2022-08-29T04:50:38.005Z,81.10
2022-08-29T04:53:05.365Z,81.30
2022-08-29T04:55:33.030Z,81.40
2022-08-29T04:58:00.200Z,81.40
2022-08-29T05:00:30.447Z,81.50
2022-08-29T05:02:58.323Z,81.60
2022-08-29T05:05:25.334Z,81.80
2022-08-29T05:07:52.204Z,81.90
2022-08-29T05:10:21.805Z,82.10
2022-08-29T05:12:49.276Z,82.00
2022-08-29T05:15:17.192Z,82.00
2022-08-29T05:17:44.390Z,82.10
2022-08-29T05:20:12.838Z,82.30
2022-08-29T05:22:42.066Z,82.40
2022-08-29T05:25:18.021Z,82.30
2022-08-29T05:27:46.178Z,82.50
2022-08-29T05:30:13.317Z,82.80
2022-08-29T05:32:40.184Z,82.90
2022-08-29T05:35:07.859Z,83.00
2022-08-29T05:37:34.803Z,83.00
2022-08-29T05:40:01.993Z,83.10
2022-08-29T05:42:29.491Z,83.30
2022-08-29T05:44:56.887Z,83.40
2022-08-29T05:47:23.842Z,83.20
2022-08-29T05:49:50.795Z,83.20
2022-08-29T05:52:20.409Z,83.10
2022-08-29T05:54:48.097Z,82.90
2022-08-29T05:57:19.846Z,83.00
2022-08-29T05:59:49.627Z,83.20
2022-08-29T06:02:18.142Z,83.10
2022-08-29T06:04:45.980Z,83.00
2022-08-29T06:07:13.693Z,83.20
2022-08-29T06:09:42.355Z,83.50
2022-08-29T06:12:11.804Z,83.60
2022-08-29T06:14:39.211Z,83.60
2022-08-29T06:17:09.259Z,83.70
2022-08-29T06:19:39.459Z,83.70
2022-08-29T06:22:10.308Z,83.80
2022-08-29T06:24:39.405Z,83.70
2022-08-29T06:27:06.858Z,84.00
2022-08-29T06:29:41.712Z,84.00
2022-08-29T06:32:11.771Z,84.00
2022-08-29T06:34:38.890Z,84.00
2022-08-29T06:37:05.774Z,84.00
2022-08-29T06:39:32.892Z,84.10
2022-08-29T06:41:59.787Z,84.20
2022-08-29T06:44:30.625Z,84.10
2022-08-29T06:46:58.957Z,83.80
2022-08-29T06:49:27.531Z,84.10
2022-08-29T06:51:58.120Z,83.90
2022-08-29T06:54:28.551Z,84.00
2022-08-29T06:56:57.900Z,84.50
2022-08-29T06:59:25.808Z,84.10
2022-08-29T07:01:55.259Z,84.00
2022-08-29T07:04:22.759Z,83.90
2022-08-29T07:06:53.443Z,84.00
2022-08-29T07:09:20.401Z,84.10
2022-08-29T07:11:47.278Z,83.30
2022-08-29T07:14:14.604Z,83.10
2022-08-29T07:16:42.127Z,83.30
2022-08-29T07:19:10.485Z,83.00
2022-08-29T07:21:38.540Z,83.10
2022-08-29T07:24:06.824Z,82.90
2022-08-29T07:26:41.450Z,83.00
2022-08-29T07:29:14.666Z,82.30
2022-08-29T07:31:41.951Z,81.80
2022-08-29T07:34:09.424Z,82.80
2022-08-29T07:36:37.155Z,81.70
2022-08-29T07:39:09.158Z,81.20
2022-08-29T07:41:37.433Z,80.30
2022-08-29T07:44:04.688Z,80.80
2022-08-29T07:46:32.175Z,80.70
2022-08-29T07:49:00.262Z,80.30
2022-08-29T07:51:27.966Z,80.00
2022-08-29T07:53:56.349Z,79.50
2022-08-29T07:56:35.810Z,79.50
2022-08-29T07:59:06.303Z,79.00
2022-08-29T08:01:33.658Z,79.50
2022-08-29T08:04:00.718Z,79.00
2022-08-29T08:06:27.833Z,79.20
2022-08-29T08:08:56.124Z,80.70
2022-08-29T08:11:26.034Z,81.80
2022-08-29T08:13:55.147Z,81.90
2022-08-29T08:16:25.806Z,83.10
2022-08-29T08:18:55.261Z,82.10
2022-08-29T08:21:23.725Z,82.60
2022-08-29T08:23:50.797Z,82.00
2022-08-29T08:26:18.470Z,81.20
2022-08-29T08:28:46.004Z,80.30
2022-08-29T08:31:15.628Z,78.50
2022-08-29T08:33:44.444Z,76.70
2022-08-29T08:36:23.209Z,75.80
2022-08-29T08:38:51.935Z,68.10
2022-08-29T08:41:27.359Z,73.60
2022-08-29T08:44:07.262Z,68.50
2022-08-29T08:46:44.447Z,71.40
2022-08-29T08:49:27.394Z,64.50
2022-08-29T08:52:03.371Z,64.80
2022-08-29T08:54:38.878Z,66.00
2022-08-29T08:57:10.074Z,67.20
2022-08-29T08:59:45.331Z,67.90
2022-08-29T09:02:36.128Z,65.00
2022-08-29T09:05:52.430Z,63.90
2022-08-29T09:08:53.446Z,62.20
2022-08-29T09:11:51.325Z,62.80
2022-08-29T09:14:47.910Z,62.30
2022-08-29T09:17:41.858Z,62.00
2022-08-29T09:20:26.069Z,62.40
2022-08-29T09:23:07.869Z,59.10
2022-08-29T09:25:36.395Z,59.00
2022-08-29T09:28:08.455Z,63.30
2022-08-29T09:30:39.281Z,60.80
2022-08-29T09:33:17.068Z,61.20
2022-08-29T09:35:53.374Z,55.40
2022-08-29T09:38:25.775Z,55.80
2022-08-29T09:41:10.526Z,56.40
2022-08-29T09:43:40.214Z,53.40
2022-08-29T09:46:19.152Z,56.20
2022-08-29T09:48:49.414Z,59.30
2022-08-29T09:51:23.195Z,58.80
2022-08-29T09:53:52.063Z,58.80
2022-08-29T09:56:27.932Z,59.60
2022-08-29T09:59:20.163Z,55.30
2022-08-29T10:01:47.201Z,57.00
2022-08-29T10:04:38.671Z,60.90
2022-08-29T10:07:18.359Z,59.80
2022-08-29T10:10:15.231Z,55.30
2022-08-29T10:12:47.286Z,53.70
2022-08-29T10:15:48.971Z,57.30
2022-08-29T10:18:49.453Z,54.50
2022-08-29T10:21:42.439Z,55.00
2022-08-29T10:24:36.314Z,56.30
2022-08-29T10:27:28.637Z,57.30
2022-08-29T10:30:17.449Z,59.10
2022-08-29T10:33:01.340Z,59.10
2022-08-29T10:36:07.947Z,62.50
2022-08-29T10:39:06.917Z,54.10
2022-08-29T10:41:50.260Z,55.70
2022-08-29T10:44:34.955Z,53.00
2022-08-29T10:47:26.244Z,54.80
2022-08-29T10:50:43.692Z,53.40
2022-08-29T10:53:36.445Z,53.80
2022-08-29T10:56:23.708Z,52.80
2022-08-29T10:59:18.592Z,52.50
2022-08-29T11:02:12.799Z,55.40
2022-08-29T11:04:54.718Z,53.60
2022-08-29T11:07:35.498Z,53.30
2022-08-29T11:10:38.657Z,54.90
2022-08-29T11:13:18.450Z,53.30
2022-08-29T11:16:10.066Z,57.90
2022-08-29T11:19:13.137Z,59.10
2022-08-29T11:21:56.598Z,56.40
2022-08-29T11:24:34.424Z,56.70
2022-08-29T11:27:42.919Z,58.00
2022-08-29T11:30:21.595Z,54.20
2022-08-29T11:33:02.642Z,53.40
2022-08-29T11:36:28.365Z,52.80
2022-08-29T11:39:07.143Z,52.00
2022-08-29T11:42:05.099Z,54.20
2022-08-29T11:44:50.163Z,52.70
2022-08-29T11:47:45.075Z,54.40
2022-08-29T11:50:14.982Z,52.90
2022-08-29T11:52:56.401Z,54.10
2022-08-29T11:55:39.818Z,52.20
2022-08-29T11:58:28.203Z,52.90
2022-08-29T12:00:58.393Z,54.40
2022-08-29T12:03:35.233Z,54.90
2022-08-29T12:06:13.256Z,51.50
2022-08-29T12:09:14.499Z,55.10
2022-08-29T12:12:05.304Z,54.50
2022-08-29T12:14:37.945Z,52.60
2022-08-29T12:17:22.242Z,55.50
2022-08-29T12:20:01.229Z,53.80
2022-08-29T12:22:56.660Z,55.60
2022-08-29T12:29:01.694Z,53.70
2022-08-29T12:32:18.260Z,57.00
2022-08-29T12:34:44.704Z,54.20
2022-08-29T12:37:32.262Z,56.10
2022-08-29T12:40:36.151Z,57.20
2022-08-29T12:43:27.538Z,54.40
2022-08-29T12:45:56.699Z,54.20
2022-08-29T12:48:31.577Z,57.30
2022-08-29T12:50:58.594Z,56.90
2022-08-29T12:53:35.659Z,57.70
2022-08-29T12:56:20.005Z,55.20
2022-08-29T12:58:52.870Z,56.30
2022-08-29T13:01:39.234Z,53.90
2022-08-29T13:04:17.741Z,53.60
2022-08-29T13:07:18.281Z,53.90
2022-08-29T13:10:01.003Z,54.70
2022-08-29T13:12:37.156Z,54.80
2022-08-29T13:15:19.117Z,53.50
2022-08-29T13:17:50.196Z,54.20
2022-08-29T13:20:42.610Z,56.40
2022-08-29T13:23:12.515Z,54.30
2022-08-29T13:26:00.818Z,55.50
2022-08-29T13:28:55.149Z,54.00
2022-08-29T13:31:36.132Z,54.70
2022-08-29T13:34:23.452Z,55.80
2022-08-29T13:37:07.660Z,54.80
2022-08-29T13:39:46.513Z,54.40
2022-08-29T13:42:21.868Z,54.30
2022-08-29T13:45:09.239Z,52.80
2022-08-29T13:48:20.168Z,52.70
2022-08-29T13:53:20.039Z,55.20
2022-08-29T13:55:47.238Z,55.00
2022-08-29T13:58:14.932Z,54.70
2022-08-29T14:00:43.699Z,54.60
2022-08-29T14:03:12.204Z,54.00
2022-08-29T14:05:39.229Z,53.60
2022-08-29T14:08:06.804Z,54.20
2022-08-29T14:10:34.406Z,54.60
2022-08-29T14:13:01.939Z,55.10
2022-08-29T14:15:28.997Z,55.00
2022-08-29T14:17:56.427Z,55.00
2022-08-29T14:20:23.843Z,53.80
2022-08-29T14:22:50.789Z,53.80
2022-08-29T14:25:20.213Z,52.80
2022-08-29T14:27:48.532Z,50.90
2022-08-29T14:30:20.340Z,51.10
2022-08-29T14:32:47.336Z,50.30
2022-08-29T14:35:25.690Z,51.60
2022-08-29T14:37:54.402Z,52.40
2022-08-29T14:40:22.116Z,52.70
2022-08-29T14:42:49.190Z,51.90
2022-08-29T14:45:16.389Z,52.10
2022-08-29T14:47:45.342Z,51.30
2022-08-29T14:50:14.094Z,50.30
2022-08-29T14:52:42.166Z,50.60
2022-08-29T14:55:11.357Z,50.70
2022-08-29T14:57:39.473Z,50.10
2022-08-29T15:00:13.208Z,50.50
2022-08-29T15:02:42.088Z,48.40
2022-08-29T15:05:10.616Z,48.50
2022-08-29T15:07:38.014Z,47.30
2022-08-29T15:10:06.352Z,46.80
2022-08-29T15:12:33.367Z,44.70
2022-08-29T15:15:00.350Z,44.00
2022-08-29T15:17:27.342Z,43.70
2022-08-29T15:22:41.773Z,43.40
2022-08-29T15:25:08.981Z,44.60
2022-08-29T15:27:35.841Z,44.60
2022-08-29T15:30:04.257Z,44.50
2022-08-29T15:32:31.369Z,43.90
2022-08-29T15:34:58.293Z,44.20
2022-08-29T15:37:25.170Z,43.30
2022-08-29T15:39:54.465Z,42.20
2022-08-29T15:42:28.475Z,42.10
2022-08-29T15:44:59.239Z,42.70
2022-08-29T15:47:29.366Z,42.40
2022-08-29T15:49:56.294Z,42.40
2022-08-29T15:52:23.558Z,42.20
2022-08-29T15:54:50.675Z,42.50
2022-08-29T15:57:17.992Z,42.50
2022-08-29T16:00:00.468Z,42.30
2022-08-29T16:02:28.284Z,41.40
2022-08-29T16:04:57.133Z,41.10
2022-08-29T16:07:28.698Z,40.10
2022-08-29T16:10:10.959Z,40.20
2022-08-29T16:12:39.803Z,40.00
2022-08-29T16:15:09.813Z,39.30
2022-08-29T16:17:38.047Z,39.00
2022-08-29T16:20:11.378Z,39.80
2022-08-29T16:22:40.132Z,40.40
2022-08-29T16:25:09.615Z,41.10
2022-08-29T16:27:36.564Z,41.30
2022-08-29T16:30:04.847Z,41.20
2022-08-29T16:32:31.774Z,41.00
2022-08-29T16:34:58.734Z,41.00
2022-08-29T16:37:26.059Z,41.20
2022-08-29T16:39:53.005Z,40.80
2022-08-29T16:42:22.721Z,40.80
2022-08-29T16:44:49.484Z,40.60
2022-08-29T16:47:16.560Z,41.30
2022-08-29T16:49:43.937Z,41.70
2022-08-29T16:52:10.870Z,41.00
2022-08-29T16:54:37.788Z,40.70
2022-08-29T16:57:04.908Z,40.60
2022-08-29T16:59:34.926Z,39.90
2022-08-29T17:02:04.239Z,40.30
2022-08-29T17:04:31.218Z,40.50
2022-08-29T17:06:58.783Z,40.20
2022-08-29T17:09:26.582Z,40.50
2022-08-29T17:11:56.375Z,40.40
2022-08-29T17:14:25.266Z,40.30
2022-08-29T17:16:54.979Z,40.60
2022-08-29T17:19:23.249Z,41.10
2022-08-29T17:21:50.273Z,41.50
2022-08-29T17:24:17.914Z,41.90
2022-08-29T17:26:47.568Z,42.20
2022-08-29T17:29:16.016Z,42.70
2022-08-29T17:31:43.395Z,43.50
2022-08-29T17:34:11.918Z,44.10
2022-08-29T17:36:40.703Z,44.40
2022-08-29T17:39:08.319Z,45.20
2022-08-29T17:41:37.351Z,45.70
2022-08-29T17:44:08.592Z,46.20
2022-08-29T17:46:35.697Z,46.60
2022-08-29T17:49:07.868Z,47.00
2022-08-29T17:51:35.703Z,47.50
2022-08-29T17:54:04.524Z,48.10
2022-08-29T17:56:47.870Z,48.40
2022-08-29T17:59:17.968Z,47.60
2022-08-29T18:01:46.632Z,49.20
2022-08-29T18:04:14.036Z,49.60
2022-08-29T18:06:41.677Z,49.90
2022-08-29T18:09:09.361Z,50.20
2022-08-29T18:11:40.699Z,50.70
2022-08-29T18:14:08.679Z,50.70
2022-08-29T18:16:36.287Z,51.10
2022-08-29T18:19:04.298Z,51.40
2022-08-29T18:21:32.890Z,51.70
2022-08-29T18:24:00.799Z,51.90
2022-08-29T18:26:28.226Z,52.40
2022-08-29T18:28:55.928Z,52.90
2022-08-29T18:31:23.726Z,53.30
2022-08-29T18:34:06.450Z,53.60
2022-08-29T18:36:36.887Z,53.80
2022-08-29T18:39:05.658Z,54.00
2022-08-29T18:41:32.676Z,54.30
2022-08-29T18:43:59.635Z,54.60
2022-08-29T18:46:28.375Z,54.90
2022-08-29T18:48:55.962Z,55.20
2022-08-29T18:51:23.142Z,55.50
2022-08-29T18:53:50.262Z,55.80
2022-08-29T18:56:17.144Z,55.90
2022-08-29T18:58:44.604Z,56.10
2022-08-29T19:01:27.810Z,56.40
2022-08-29T19:04:00.635Z,56.60
2022-08-29T19:06:28.589Z,56.80
2022-08-29T19:08:56.946Z,57.00
2022-08-29T19:11:25.203Z,57.30
2022-08-29T19:13:52.946Z,57.40
2022-08-29T19:16:22.342Z,57.60
2022-08-29T19:18:50.296Z,58.30
2022-08-29T19:21:17.245Z,58.00
2022-08-29T19:23:52.389Z,58.10
2022-08-29T19:26:35.739Z,58.30
2022-08-29T19:29:12.496Z,58.20
2022-08-29T19:31:44.812Z,58.50
2022-08-29T19:34:12.137Z,58.60
2022-08-29T19:36:40.046Z,58.70
2022-08-29T19:39:06.958Z,58.80
2022-08-29T19:41:35.143Z,59.00
2022-08-29T19:44:02.389Z,59.10
2022-08-29T19:46:29.594Z,59.20
2022-08-29T19:48:56.586Z,59.40
2022-08-29T19:51:25.466Z,59.70
2022-08-29T19:53:57.103Z,59.90
2022-08-29T19:56:26.564Z,60.00
2022-08-29T19:58:53.891Z,60.20
2022-08-29T20:01:21.365Z,60.40
2022-08-29T20:03:48.464Z,60.60
2022-08-29T20:06:15.834Z,60.80
2022-08-29T20:08:48.664Z,60.90
2022-08-29T20:11:24.628Z,61.10
2022-08-29T20:13:57.312Z,61.30
2022-08-29T20:16:29.678Z,61.40
2022-08-29T20:18:57.581Z,61.50
2022-08-29T20:21:25.931Z,61.60
2022-08-29T20:23:57.673Z,61.90
2022-08-29T20:26:27.489Z,61.90
2022-08-29T20:28:56.222Z,62.10
2022-08-29T20:31:23.326Z,62.10
2022-08-29T20:33:50.733Z,62.20
2022-08-29T20:36:39.356Z,62.30
2022-08-29T20:39:09.546Z,62.40
2022-08-29T20:41:37.112Z,62.50
2022-08-29T20:44:07.827Z,62.60
2022-08-29T20:46:41.069Z,62.70
2022-08-29T20:49:11.999Z,62.80
2022-08-29T20:51:43.975Z,62.80
2022-08-29T20:54:20.747Z,61.60
2022-08-29T20:56:48.572Z,62.80
2022-08-29T20:59:15.914Z,63.00
2022-08-29T21:01:43.664Z,63.70
2022-08-29T21:04:31.419Z,63.40
2022-08-29T21:07:03.874Z,63.60
2022-08-29T21:09:31.498Z,63.80
2022-08-29T21:11:58.659Z,63.80
2022-08-29T21:14:27.416Z,63.90
2022-08-29T21:16:57.428Z,64.00
2022-08-29T21:19:29.728Z,64.10
2022-08-29T21:21:59.452Z,64.20
2022-08-29T21:24:27.474Z,64.30
2022-08-29T21:26:54.380Z,64.40
2022-08-29T21:29:21.775Z,64.50
2022-08-29T21:31:51.634Z,64.50
2022-08-29T21:34:18.692Z,64.60
2022-08-29T21:36:45.620Z,64.70
2022-08-29T21:39:15.324Z,64.80
2022-08-29T21:41:56.961Z,65.00
2022-08-29T21:44:23.976Z,64.90
2022-08-29T21:46:51.120Z,65.00
2022-08-29T21:49:21.503Z,65.10
2022-08-29T21:51:49.591Z,65.30
2022-08-29T21:54:18.190Z,65.30
2022-08-29T21:56:46.925Z,65.30
2022-08-29T21:59:15.678Z,65.50
2022-08-29T22:01:45.614Z,65.60
2022-08-29T22:04:19.244Z,65.60
2022-08-29T22:06:56.379Z,65.70
2022-08-29T22:09:23.277Z,65.80
2022-08-29T22:11:50.308Z,66.00
2022-08-29T22:14:17.349Z,66.10
2022-08-29T22:16:44.240Z,66.20
2022-08-29T22:19:15.084Z,66.30
2022-08-29T22:21:47.642Z,66.40
2022-08-29T22:24:16.633Z,65.50
2022-08-29T22:26:45.295Z,66.20
2022-08-29T22:29:16.149Z,66.40
2022-08-29T22:31:45.209Z,66.50
2022-08-29T22:34:15.268Z,66.60
2022-08-29T22:36:42.753Z,66.70
2022-08-29T22:39:10.488Z,66.80
2022-08-29T22:41:37.842Z,66.90
2022-08-29T22:46:54.004Z,67.20
2022-08-29T22:49:21.266Z,67.20
2022-08-29T22:51:48.992Z,67.30
2022-08-29T22:54:34.878Z,67.30
2022-08-29T22:57:15.038Z,67.40
2022-08-29T22:59:43.908Z,67.40
2022-08-29T23:02:12.623Z,67.90
2022-08-29T23:04:40.408Z,67.50
2022-08-29T23:07:08.536Z,67.60
2022-08-29T23:09:41.100Z,67.70
2022-08-29T23:12:09.511Z,67.70
2022-08-29T23:14:38.398Z,67.70
2022-08-29T23:17:07.644Z,67.80
2022-08-29T23:19:36.346Z,67.80
2022-08-29T23:22:04.338Z,67.90
2022-08-29T23:24:33.013Z,67.90
2022-08-29T23:27:00.479Z,68.00
2022-08-29T23:29:30.495Z,68.10
2022-08-29T23:31:57.440Z,68.10
2022-08-29T23:34:24.535Z,68.10
2022-08-29T23:36:51.395Z,68.20
2022-08-29T23:39:18.359Z,68.30
2022-08-29T23:41:45.321Z,68.40
2022-08-29T23:44:12.268Z,68.40
2022-08-29T23:46:39.232Z,68.50
2022-08-29T23:49:06.888Z,68.60
2022-08-29T23:51:34.059Z,68.70
2022-08-29T23:54:01.680Z,68.70
2022-08-29T23:56:28.640Z,68.80
2022-08-29T23:58:56.808Z,68.80
